F/V Attalaya Berria — FHCB — position and weather

sailwx.info

Track history (hours):
 
Tides and Currents Weather Stations Pressure Air Temp Water Temp Dewpoint Dewpoint Depression Visibility Wind Speed Wind Dir Waves Ship Positions

F/V Attalaya Berria

Last reported at 2015-Mar-03 12:33 UTC. Time now 2015-Mar-03 12:48 UTC.
Position N 43°22' W 001°47'.

Length 26 m.

Type: Fishing. MMSI: 228315000.

Date/timePositionNaut miles runAvg speedWind from/ knotsBaromVisibWave heightAir tempDewpointWater temp
2015-Mar-03 12:33N 43°22' W 001°47'0 0.0
2015-Mar-03 11:33N 43°22' W 001°47'0 0.0
2015-Mar-03 10:33N 43°22' W 001°47'0 0.0
2015-Mar-03 09:33N 43°22' W 001°47'0 0.0
2015-Mar-03 08:33N 43°22' W 001°47'0 0.0
2015-Mar-03 07:33N 43°22' W 001°47'0 0.0
2015-Mar-03 06:33N 43°22' W 001°47'5 5.2
2015-Mar-03 05:33N 43°22' W 001°54'3 0.9
2015-Mar-03 02:03N 43°20' W 001°55'4 8.6
2015-Mar-03 01:33N 43°23' W 001°52'4 3.5
2015-Mar-03 00:33N 43°23' W 001°47'3 3.0
2015-Mar-02 23:33N 43°26' W 001°47'3 2.8
2015-Mar-02 22:33N 43°23' W 001°47'6 6.4
2015-Mar-02 21:33N 43°27' W 001°40'1 0.9
2015-Mar-02 20:33N 43°27' W 001°39'1 1.1
2015-Mar-02 19:33N 43°27' W 001°40'3 3.4
2015-Mar-02 18:33N 43°26' W 001°45'4 3.8
2015-Mar-02 17:33N 43°22' W 001°47'0 0.0
2015-Mar-02 05:33N 43°22' W 001°47'5 5.4
2015-Mar-02 04:33N 43°23' W 001°40'0 0.0
2015-Mar-02 03:33N 43°23' W 001°40'0 0.2
2015-Mar-02 02:34N 43°23' W 001°40'5 5.1
2015-Mar-02 01:34N 43°23' W 001°47'0 0.1
2015-Mar-02 00:34N 43°23' W 001°47'0 0.1
2015-Mar-01 23:34N 43°23' W 001°47'3 3.3
2015-Mar-01 22:34N 43°25' W 001°43'2 1.9
2015-Mar-01 21:33N 43°27' W 001°42'0 0.2
2015-Mar-01 20:34N 43°27' W 001°42'2 1.9
2015-Mar-01 19:33N 43°26' W 001°44'  
2015-Feb-23 07:33N 43°24' W 001°51'6 1.7
2015-Feb-23 04:12N 43°19' W 001°55'5 8.2
2015-Feb-23 03:32N 43°24' W 001°51'8 7.8
2015-Feb-23 02:33N 43°27' W 001°41'1 1.4
2015-Feb-23 01:34N 43°26' W 001°43'4 4.1
2015-Feb-23 00:33N 43°23' W 001°47'7 3.5
2015-Feb-22 22:28N 43°19' W 001°56'4 4.3
2015-Feb-22 21:27N 43°23' W 001°52'7 7.4
2015-Feb-22 20:33N 43°24' W 001°43'3 2.9
2015-Feb-22 19:33N 43°27' W 001°41'  
Track history (hours):
 
Tides and Currents Weather Stations Pressure Air Temp Water Temp Dewpoint Dewpoint Depression Visibility Wind Speed Wind Dir Waves Ship Positions

F/V Attalaya Berria

Last reported at 2015-Mar-03 12:33 UTC. Time now 2015-Mar-03 12:48 UTC.
Position N 43°22' W 001°47'.

Length 26 m.

Type: Fishing. MMSI: 228315000.

Date/timePositionNaut miles runAvg speedWind from/ knotsBaromVisibWave heightAir tempDewpointWater temp
2015-Mar-03 12:33N 43°22' W 001°47'0 0.0
2015-Mar-03 11:33N 43°22' W 001°47'0 0.0
2015-Mar-03 10:33N 43°22' W 001°47'0 0.0
2015-Mar-03 09:33N 43°22' W 001°47'0 0.0
2015-Mar-03 08:33N 43°22' W 001°47'0 0.0
2015-Mar-03 07:33N 43°22' W 001°47'0 0.0
2015-Mar-03 06:33N 43°22' W 001°47'5 5.2
2015-Mar-03 05:33N 43°22' W 001°54'3 0.9
2015-Mar-03 02:03N 43°20' W 001°55'4 8.6
2015-Mar-03 01:33N 43°23' W 001°52'4 3.5
2015-Mar-03 00:33N 43°23' W 001°47'3 3.0
2015-Mar-02 23:33N 43°26' W 001°47'3 2.8
2015-Mar-02 22:33N 43°23' W 001°47'6 6.4
2015-Mar-02 21:33N 43°27' W 001°40'1 0.9
2015-Mar-02 20:33N 43°27' W 001°39'1 1.1
2015-Mar-02 19:33N 43°27' W 001°40'3 3.4
2015-Mar-02 18:33N 43°26' W 001°45'4 3.8
2015-Mar-02 17:33N 43°22' W 001°47'0 0.0
2015-Mar-02 05:33N 43°22' W 001°47'5 5.4
2015-Mar-02 04:33N 43°23' W 001°40'0 0.0
2015-Mar-02 03:33N 43°23' W 001°40'0 0.2
2015-Mar-02 02:34N 43°23' W 001°40'5 5.1
2015-Mar-02 01:34N 43°23' W 001°47'0 0.1
2015-Mar-02 00:34N 43°23' W 001°47'0 0.1
2015-Mar-01 23:34N 43°23' W 001°47'3 3.3
2015-Mar-01 22:34N 43°25' W 001°43'2 1.9
2015-Mar-01 21:33N 43°27' W 001°42'0 0.2
2015-Mar-01 20:34N 43°27' W 001°42'2 1.9
2015-Mar-01 19:33N 43°26' W 001°44'  
2015-Feb-23 07:33N 43°24' W 001°51'6 1.7
2015-Feb-23 04:12N 43°19' W 001°55'5 8.2
2015-Feb-23 03:32N 43°24' W 001°51'8 7.8
2015-Feb-23 02:33N 43°27' W 001°41'1 1.4
2015-Feb-23 01:34N 43°26' W 001°43'4 4.1
2015-Feb-23 00:33N 43°23' W 001°47'7 3.5
2015-Feb-22 22:28N 43°19' W 001°56'4 4.3
2015-Feb-22 21:27N 43°23' W 001°52'7 7.4
2015-Feb-22 20:33N 43°24' W 001°43'3 2.9
2015-Feb-22 19:33N 43°27' W 001°41'  

Dump ship's entire track history